Lattasburg, Ohio
Current Conditions -  °F | °C
As of 6:56 PM on Wednesday 26 Nov 2014 (Local Time) from KBJJ Reporting Station
Overcast Overcast  
Wind Chill: 28°   Ceiling: 3400
Heat Index: 33°   Visibility: 10mi
Dew Point: 26°   Wind: 6mph
Humidity: 75%   Direction: 350°N
Pressure: 30.03"   Gusts: NA
Location:  40.9441°N, 82.1006°W
Report Text: KBJJ 262356Z AUTO 35005KT 10SM OVC034 01/M03 A3003 RMK AO2 SLP182 T00061033 10022 20006 53003 TSNO
Loading
Personal Weather Stations






























Interactive Weather Map New forecast layout! Learn more

10-Day Weather Forecast

Advertisements
Track Severe Weather on mobile